Arrowhead, Minnesota
Current Conditions -  °F | °C
As of 5:37 PM on Monday 22 Dec 2014 (Local Time) from KCOQ Reporting Station
Haze Haze  
Wind Chill: -3°   Ceiling: 200
Heat Index:   Visibility: 1.7mi
Dew Point:   Wind: 8mph
Humidity: 100%   Direction: 100°E
Pressure: 29.68"   Gusts: NA
Location:  46.8211°N, 92.6871°W
Report Text: KCOQ 222337Z AUTO 10007KT 1 3/4SM BR OVC002 01/01 A2968 RMK AO2
Loading
Personal Weather Stations






























Interactive Weather Map New forecast layout! Learn more

10-Day Weather Forecast

Advertisements
Track Severe Weather on mobile